Aérodrome :
LOGIN :

S'inscrire | Disclaimer

   EN    FR    IT 

 










Légende :    VFR   VFR Marginal   IFR   IFR Intensif   IFR Très Intensif
Visi : 
Plafond : 
>= 8 km
>= 3000ft
5 à 8 km
1000 à 3000 ft
1500m à 5 km
500 à 1000 ft
800 à 1500m
200 à 500 ft
< 800m
< 200 ft
Symboles :   Orages  Brouillard  Fortes neiges  Fortes précipitations  Vent > 20 kt
SIGMETs :   Divers  Orages  Givrage  Turbulence  Onde Orograph.  Cendres Volcan.







- Altitude de l'aérodrome : 288 ft
- Code IATA : BZZ


EGVN - RAF Brize Norton

DERNIER METAR :
  • 270250Z 05007KT 5000 BR SCT007 SCT100 BKN130 13/12 Q1016 TEMPO 8000 HZ FEW007

METARs EXPIRÉS :
  • 270150Z 11004KT 5000 BR FEW005 SCT007 13/13 Q1015 GRN NOSIG
  • 270050Z 06013KT 8000 HZ FEW040CB SCT100 13/12 Q1017 RERA RETS TEMPO 4000 SHRA

TAF TAF EGVN
Valide du 27 à 03h jusqu'au 28 à 03h UTC


270130Z 2703/2803 06008KT 9999 FEW040
TEMPO 2703/2721 7000 SHRA
PROB30
TEMPO 2703/2706 2500 +SHRA SCT010 BKN050CB
PROB30
TEMPO 2706/2720 2000 TSGS +SHRA SCT008 SCT020CB
PROB40 2723/2803 4500 BR SCT006
Pas de NOTAMs connus pour ce terrain.
1 SIGMET publié pour la FIR London (EGTT) :
 
Orages noyés dans la masse
EGTT SIGMET 01 VALID 270230/270630 EGRR
EGTT LONDON FIR EMBD TS OBS WI N5233 E00039 - N5140 E00042 - N5156 W00359 - N5250 W00404 - N5233 E00039 TOP FL370 MOV NW 20KT WKN=



MET'MAP, la Météo Aéronautique d'un coup d'oeil ! - Copyright ORBIFLY Décembre 2007 - Disclaimer

ORBIFLY MET'MAP TEAM :

Programmation & Développement : Alexandra Zaïnal
Conception & Développement : Baudouin d'Aumeries
Co-Programmation & Développement : Marc-Olivier Méhu
Soutien technique & logistique : Manuel Goepfert

Contact : metmap@orbifly.com




SOURCES & CREDITS :

   NOAA